| time (UTC) | temp C | wind direction | speed KPH | gust KPH | rain 1hr cm | rain 24hr cm | rain mn cm | humidity % | barometer mb |
| 20260904172112 | 26 | 144 | 1.6 | 3.2 | 0.05 | 3.05 | 1.65 | 93 | 1016.2 |
| 20260904171613 | 26 | 144 | 1.6 | 6.4 | 0.23 | 3.05 | 1.65 | 94 | 1016.3 |
| 20260904171111 | 26 | 144 | 1.6 | 6.4 | 0.69 | 3.05 | 1.65 | 94 | 1016.2 |
| 20260904170612 | 26 | 144 | 1.6 | 4.8 | 1.02 | 3.05 | 1.65 | 94 | 1016.3 |
| 20260904170112 | 26 | 144 | 1.6 | 4.8 | 1.42 | 3.05 | 1.65 | 94 | 1016.2 |
| 20260904165610 | 25 | 144 | 1.6 | 3.2 | 1.63 | 3.05 | 1.65 | 93 | 1016.2 |
| 20260904165108 | 25 | 144 | 1.6 | 3.2 | 1.63 | 3.05 | 1.65 | 93 | 1016.3 |
| 20260904164606 | 25 | 144 | 1.6 | 3.2 | 1.63 | 3.05 | 1.65 | 92 | 1016.4 |
| 20260904164105 | 25 | 144 | 1.6 | 6.4 | 1.63 | 3.05 | 1.65 | 92 | 1016.4 |
| 20260904163604 | 25 | 144 | 1.6 | 6.4 | 1.60 | 3.02 | 1.63 | 91 | 1016.8 |
| 20260904163105 | 25 | 143 | 3.2 | 9.7 | 1.60 | 3.02 | 1.63 | 91 | 1017.0 |
| 20260904162604 | 25 | 334 | 6.4 | 12.9 | 1.63 | 3.02 | 1.63 | 89 | 1016.9 |
| 20260904162102 | 25 | 0 | 4.8 | 12.9 | 1.60 | 3.00 | 1.63 | 89 | 1017.0 |
| 20260904161603 | 25 | 356 | 4.8 | 12.9 | 1.42 | 2.82 | 1.42 | 89 | 1017.1 |
| 20260904161058 | 26 | 313 | 6.4 | 16.1 | 0.97 | 2.36 | 1.02 | 86 | 1017.2 |
| 20260904160551 | 26 | 339 | 8.0 | 19.3 | 0.61 | 2.01 | 0.64 | 84 | 1017.1 |
| 20260904160045 | 27 | 343 | 8.0 | 19.3 | 0.23 | 1.63 | 0.30 | 84 | 1017.3 |
| 20260904155539 | 28 | 322 | 6.4 | 17.7 | 0.03 | 1.42 | 0.03 | 80 | 1017.3 |
| 20260904155306 | 30 | 310 | 6.4 | 17.7 | 0.03 | 1.42 | 0.03 | 75 | 1017.1 |
| 20260904155137 | 30 | 310 | 6.4 | 17.7 | 0.03 | 1.42 | 0.03 | 75 | 1017.1 |
| 20260904154528 | 31 | 303 | 4.8 | 12.9 | 0.03 | 1.42 | 0.03 | 76 | 1017.1 |
| 20260904154021 | 32 | 317 | 3.2 | 9.7 | 0.03 | 1.42 | 0.03 | 80 | 1016.7 |
| 20260904153750 | 32 | 72 | 3.2 | 9.7 | 0.03 | 1.42 | 0.03 | 76 | 1016.6 |
| 20260904153515 | 32 | 72 | 3.2 | 9.7 | 0.03 | 1.42 | 0.03 | 76 | 1016.6 |
| 20260904153009 | 33 | 144 | 3.2 | 9.7 | 0.00 | 1.40 | 0.00 | 75 | 1016.5 |
| 20260904152839 | 33 | 160 | 3.2 | 9.7 | 0.00 | 1.40 | 0.00 | 75 | 1016.5 |
| 20260904152742 | 33 | 160 | 3.2 | 9.7 | 0.00 | 1.40 | 0.00 | 75 | 1016.5 |
| 20260904151958 | 33 | 160 | 4.8 | 19.3 | 0.00 | 1.40 | 0.00 | 74 | 1016.5 |
| 20260904151721 | 32 | 158 | 3.2 | 19.3 | 0.00 | 1.40 | 0.00 | 76 | 1016.5 |
| 20260904151557 | 32 | 158 | 3.2 | 19.3 | 0.00 | 1.40 | 0.00 | 76 | 1016.5 |
| 20260904150945 | 32 | 150 | 1.6 | 6.4 | 0.00 | 1.40 | 0.00 | 76 | 1016.4 |
| 20260904150712 | 32 | 122 | 1.6 | 6.4 | 0.00 | 1.40 | 0.00 | 80 | 1016.4 |
| 20260904150544 | 32 | 122 | 1.6 | 6.4 | 0.00 | 1.40 | 0.00 | 80 | 1016.4 |
| 20260904150205 | 31 | 180 | 1.6 | 4.8 | 0.00 | 1.40 | 0.00 | 82 | 1016.4 |
| 20260904150038 | 31 | 180 | 1.6 | 4.8 | 0.00 | 1.40 | 0.00 | 82 | 1016.4 |
| 20260904145427 | 31 | 188 | 1.6 | 4.8 | 0.00 | 1.40 | 0.00 | 81 | 1016.5 |
| 20260904144921 | 31 | 188 | 1.6 | 4.8 | 0.00 | 1.40 | 0.00 | 81 | 1016.3 |
| 20260904144415 | 31 | 188 | 3.2 | 6.4 | 0.00 | 1.40 | 0.00 | 79 | 1016.3 |
| 20260904143909 | 31 | 189 | 3.2 | 8.0 | 0.00 | 1.40 | 0.00 | 80 | 1016.3 |
| 20260904143403 | 31 | 189 | 3.2 | 11.3 | 0.00 | 1.40 | 0.00 | 80 | 1016.2 |
| 20260904142857 | 31 | 199 | 1.6 | 11.3 | 0.00 | 1.40 | 0.00 | 80 | 1016.2 |
| 20260904142351 | 30 | 195 | 1.6 | 6.4 | 0.00 | 1.40 | 0.00 | 83 | 1016.1 |
| 20260904142220 | 30 | 194 | 1.6 | 9.7 | 0.00 | 1.40 | 0.00 | 83 | 1016.1 |
| 20260904142121 | 30 | 194 | 1.6 | 9.7 | 0.00 | 1.40 | 0.00 | 83 | 1016.1 |
| 20260904141339 | 30 | 194 | 3.2 | 12.9 | 0.00 | 1.40 | 0.00 | 83 | 1016.1 |
| 20260904140833 | 30 | 193 | 4.8 | 14.5 | 0.00 | 1.40 | 0.00 | 85 | 1016.0 |
| 20260904140558 | 30 | 188 | 4.8 | 14.5 | 0.00 | 1.40 | 0.00 | 85 | 1016.0 |
| 20260904140432 | 30 | 188 | 4.8 | 14.5 | 0.00 | 1.40 | 0.00 | 85 | 1016.0 |
| 20260904135822 | 30 | 186 | 3.2 | 11.3 | 0.00 | 1.40 | 0.00 | 85 | 1015.9 |
| 20260904135546 | 30 | 203 | 3.2 | 9.7 | 0.00 | 1.40 | 0.00 | 87 | 1015.8 |
| 20260904135419 | 30 | 203 | 3.2 | 9.7 | 0.00 | 1.40 | 0.00 | 87 | 1015.8 |
| 20260904134810 | 29 | 176 | 4.8 | 9.7 | 0.00 | 1.40 | 0.00 | 87 | 1015.9 |
| 20260904134640 | 29 | 177 | 4.8 | 11.3 | 0.00 | 1.40 | 0.00 | 89 | 1015.9 |
| 20260904134547 | 29 | 177 | 4.8 | 11.3 | 0.00 | 1.40 | 0.00 | 89 | 1015.9 |
| 20260904133805 | 28 | 153 | 3.2 | 11.3 | 0.00 | 1.40 | 0.00 | 91 | 1015.9 |
| 20260904133305 | 28 | 214 | 3.2 | 6.4 | 0.00 | 1.40 | 0.00 | 92 | 1015.9 |
| 20260904133038 | 28 | 218 | 1.6 | 6.4 | 0.00 | 1.40 | 0.00 | 94 | 1015.9 |
| 20260904132910 | 28 | 218 | 1.6 | 6.4 | 0.00 | 1.40 | 0.00 | 94 | 1015.9 |
| 20260904132306 | 28 | 258 | 1.6 | 4.8 | 0.00 | 1.40 | 0.00 | 96 | 1015.8 |
| 20260904131801 | 27 | 262 | 1.6 | 4.8 | 0.00 | 1.40 | 0.00 | 96 | 1015.9 |
| 20260904131300 | 27 | 262 | 1.6 | 4.8 | 0.00 | 1.40 | 0.00 | 96 | 1015.7 |
| 20260904130759 | 27 | 264 | 1.6 | 4.8 | 0.00 | 1.40 | 0.00 | 96 | 1015.8 |
| 20260904130255 | 27 | 266 | 1.6 | 4.8 | 0.00 | 1.40 | 0.00 | 96 | 1015.6 |
| 20260904130133 | 27 | 299 | 0.0 | 4.8 | 0.00 | 1.40 | 0.00 | 96 | 1015.7 |
| 20260904130040 | 27 | 299 | 0.0 | 4.8 | 0.00 | 1.40 | 0.00 | 96 | 1015.7 |
| 20260904125256 | 27 | 298 | 1.6 | 4.8 | 0.00 | 1.40 | 0.00 | 96 | 1015.6 |
| 20260904125025 | 27 | 312 | 1.6 | 4.8 | 0.00 | 1.40 | 0.00 | 96 | 1015.6 |
| 20260904124859 | 27 | 312 | 1.6 | 4.8 | 0.00 | 1.40 | 0.00 | 96 | 1015.6 |
| 20260904124255 | 26 | 320 | 0.0 | 3.2 | 0.00 | 1.40 | 0.00 | 96 | 1015.5 |
| 20260904124019 | 26 | 320 | 0.0 | 3.2 | 0.00 | 1.40 | 0.00 | 96 | 1015.5 |
| 20260904123853 | 26 | 320 | 0.0 | 3.2 | 0.00 | 1.40 | 0.00 | 96 | 1015.5 |
| 20260904123249 | 26 | 320 | 0.0 | 1.6 | 0.00 | 1.40 | 0.00 | 96 | 1015.5 |
| 20260904122750 | 26 | 320 | 0.0 | 0.0 | 0.00 | 1.40 | 0.00 | 96 | 1015.4 |
| 20260904122519 | 25 | 320 | 0.0 | 0.0 | 0.00 | 1.40 | 0.00 | 96 | 1015.6 |
| 20260904122352 | 25 | 320 | 0.0 | 0.0 | 0.00 | 1.40 | 0.00 | 96 | 1015.6 |
| 20260904121746 | 25 | 320 | 0.0 | 0.0 | 0.00 | 1.40 | 0.00 | 96 | 1015.5 |
| 20260904121243 | 25 | 320 | 0.0 | 0.0 | 0.00 | 1.40 | 0.00 | 96 | 1015.5 |
| 20260904121014 | 25 | 320 | 0.0 | 0.0 | 0.00 | 1.40 | 0.00 | 96 | 1015.3 |
| 20260904120848 | 25 | 320 | 0.0 | 0.0 | 0.00 | 1.40 | 0.00 | 96 | 1015.3 |
| 20260904120510 | 25 | 320 | 0.0 | 0.0 | 0.00 | 1.40 | 0.00 | 96 | 1015.4 |
| 20260904120344 | 25 | 320 | 0.0 | 0.0 | 0.00 | 1.40 | 0.00 | 96 | 1015.4 |
| 20260904115734 | 25 | 320 | 0.0 | 0.0 | 0.00 | 1.40 | 0.00 | 95 | 1015.4 |
| 20260904115228 | 25 | 320 | 0.0 | 0.0 | 0.00 | 1.40 | 0.00 | 96 | 1015.4 |
| 20260904114722 | 24 | 320 | 0.0 | 0.0 | 0.00 | 1.40 | 0.00 | 95 | 1015.3 |
| 20260904114553 | 24 | 320 | 0.0 | 0.0 | 0.00 | 1.40 | 0.00 | 95 | 1015.3 |
| 20260904114451 | 24 | 320 | 0.0 | 0.0 | 0.00 | 1.40 | 0.00 | 95 | 1015.3 |
| 20260904113712 | 24 | 320 | 0.0 | 0.0 | 0.00 | 1.40 | 0.00 | 95 | 1015.3 |
| 20260904113204 | 24 | 320 | 0.0 | 0.0 | 0.00 | 1.40 | 0.00 | 95 | 1015.2 |
| 20260904112657 | 24 | 320 | 0.0 | 0.0 | 0.00 | 1.40 | 0.00 | 95 | 1015.1 |
| 20260904112423 | 24 | 320 | 0.0 | 0.0 | 0.00 | 1.40 | 0.00 | 95 | 1015.1 |
| 20260904112256 | 24 | 320 | 0.0 | 0.0 | 0.00 | 1.40 | 0.00 | 95 | 1015.1 |
| 20260904111646 | 24 | 320 | 0.0 | 0.0 | 0.00 | 1.40 | 0.00 | 95 | 1015.1 |
| 20260904111140 | 24 | 320 | 0.0 | 0.0 | 0.00 | 1.40 | 0.00 | 95 | 1014.9 |
| 20260904110634 | 24 | 320 | 0.0 | 0.0 | 0.00 | 1.40 | 0.00 | 95 | 1014.8 |
| 20260904110129 | 24 | 320 | 0.0 | 0.0 | 0.00 | 1.40 | 0.00 | 95 | 1014.8 |
| 20260904105727 | 24 | 320 | 0.0 | 0.0 | 0.00 | 1.40 | 0.00 | 95 | 1014.8 |
| 20260904104613 | 24 | 320 | 0.0 | 0.0 | 0.00 | 1.42 | 0.00 | 95 | 1014.6 |
| 20260904104113 | 25 | 320 | 0.0 | 0.0 | 0.00 | 1.42 | 0.00 | 95 | 1014.6 |
| 20260904103610 | 25 | 320 | 0.0 | 0.0 | 0.00 | 1.42 | 0.00 | 95 | 1014.5 |
| 20260904103110 | 24 | 320 | 0.0 | 0.0 | 0.00 | 1.42 | 0.00 | 95 | 1014.6 |
| 20260904102609 | 24 | 320 | 0.0 | 0.0 | 0.00 | 1.42 | 0.00 | 95 | 1014.6 |
| 20260904102108 | 25 | 320 | 0.0 | 0.0 | 0.00 | 1.42 | 0.00 | 95 | 1014.6 |
| 20260904101608 | 25 | 320 | 0.0 | 0.0 | 0.00 | 1.42 | 0.00 | 95 | 1014.5 |
| 20260904101112 | 25 | 320 | 0.0 | 0.0 | 0.00 | 1.42 | 0.00 | 95 | 1014.4 |
| 20260904100610 | 25 | 320 | 0.0 | 0.0 | 0.00 | 1.42 | 0.00 | 95 | 1014.3 |
| 20260904100110 | 25 | 320 | 0.0 | 0.0 | 0.00 | 1.42 | 0.00 | 95 | 1014.2 |
| 20260904095612 | 25 | 320 | 0.0 | 0.0 | 0.00 | 1.42 | 0.00 | 95 | 1014.0 |
| 20260904095109 | 25 | 320 | 0.0 | 0.0 | 0.00 | 1.42 | 0.00 | 95 | 1013.9 |
| 20260904094610 | 25 | 320 | 0.0 | 0.0 | 0.00 | 1.42 | 0.00 | 95 | 1013.9 |
| 20260904094108 | 25 | 320 | 0.0 | 0.0 | 0.00 | 1.42 | 0.00 | 95 | 1014.0 |
| 20260904093609 | 25 | 320 | 0.0 | 0.0 | 0.00 | 1.42 | 0.00 | 95 | 1014.1 |
| 20260904093109 | 25 | 320 | 0.0 | 0.0 | 0.00 | 1.42 | 0.00 | 95 | 1014.0 |
| 20260904092609 | 25 | 320 | 0.0 | 0.0 | 0.00 | 1.42 | 0.00 | 95 | 1013.9 |
| 20260904092340 | 25 | 320 | 0.0 | 0.0 | 0.00 | 1.42 | 0.00 | 95 | 1013.9 |
| 20260904092214 | 25 | 320 | 0.0 | 0.0 | 0.00 | 1.42 | 0.00 | 95 | 1013.9 |
| 20260904091608 | 25 | 320 | 0.0 | 0.0 | 0.00 | 1.42 | 0.00 | 95 | 1013.9 |
| 20260904091108 | 25 | 320 | 0.0 | 0.0 | 0.00 | 1.42 | 0.00 | 95 | 1013.9 |
| 20260904090841 | 25 | 320 | 0.0 | 0.0 | 0.00 | 1.42 | 0.00 | 95 | 1013.9 |
| 20260904090713 | 25 | 320 | 0.0 | 0.0 | 0.00 | 1.42 | 0.00 | 95 | 1013.9 |
| 20260904090341 | 25 | 320 | 0.0 | 0.0 | 0.00 | 1.42 | 0.00 | 95 | 1013.9 |
| 20260904090213 | 25 | 320 | 0.0 | 0.0 | 0.00 | 1.42 | 0.00 | 95 | 1013.9 |
| 20260904085840 | 25 | 320 | 0.0 | 0.0 | 0.00 | 1.42 | 0.00 | 95 | 1013.9 |
| 20260904085714 | 25 | 320 | 0.0 | 0.0 | 0.00 | 1.42 | 0.00 | 95 | 1013.9 |
| 20260904085339 | 25 | 320 | 0.0 | 0.0 | 0.00 | 1.42 | 0.00 | 95 | 1013.7 |
| 20260904085213 | 25 | 320 | 0.0 | 0.0 | 0.00 | 1.42 | 0.00 | 95 | 1013.7 |
| 20260904084608 | 25 | 320 | 0.0 | 0.0 | 0.00 | 1.42 | 0.00 | 95 | 1013.7 |
| 20260904084337 | 25 | 320 | 0.0 | 0.0 | 0.00 | 1.42 | 0.00 | 95 | 1013.6 |
| 20260904084209 | 25 | 320 | 0.0 | 0.0 | 0.00 | 1.42 | 0.00 | 95 | 1013.6 |
| 20260904083604 | 25 | 320 | 0.0 | 0.0 | 0.00 | 1.42 | 0.00 | 95 | 1013.6 |
| 20260904083100 | 25 | 320 | 0.0 | 0.0 | 0.00 | 1.42 | 0.00 | 95 | 1013.7 |
| 20260904082600 | 25 | 320 | 0.0 | 0.0 | 0.00 | 1.42 | 0.00 | 95 | 1013.7 |
| 20260904082058 | 25 | 320 | 0.0 | 0.0 | 0.00 | 1.42 | 0.00 | 95 | 1013.7 |
| 20260904081557 | 25 | 320 | 0.0 | 0.0 | 0.00 | 1.42 | 0.00 | 95 | 1013.7 |
| 20260904081058 | 25 | 320 | 0.0 | 0.0 | 0.00 | 1.42 | 0.00 | 95 | 1013.6 |
| 20260904080558 | 25 | 320 | 0.0 | 0.0 | 0.00 | 1.42 | 0.00 | 95 | 1013.7 |
| 20260904080052 | 25 | 320 | 0.0 | 0.0 | 0.00 | 1.42 | 0.00 | 95 | 1013.6 |
| 20260904075546 | 25 | 320 | 0.0 | 0.0 | 0.00 | 1.42 | 0.00 | 95 | 1013.5 |
| 20260904075040 | 25 | 320 | 0.0 | 0.0 | 0.00 | 1.42 | 0.00 | 95 | 1013.6 |
| 20260904074534 | 25 | 320 | 0.0 | 0.0 | 0.00 | 1.42 | 0.00 | 95 | 1013.5 |
| 20260904074028 | 25 | 320 | 0.0 | 0.0 | 0.00 | 1.42 | 0.00 | 95 | 1013.6 |
| 20260904073522 | 25 | 320 | 0.0 | 0.0 | 0.00 | 1.42 | 0.00 | 95 | 1013.7 |
| 20260904073018 | 25 | 320 | 0.0 | 0.0 | 0.00 | 1.42 | 0.00 | 95 | 1013.6 |
| 20260904072510 | 25 | 320 | 0.0 | 0.0 | 0.00 | 1.42 | 0.00 | 95 | 1013.5 |
| 20260904072004 | 25 | 320 | 0.0 | 0.0 | 0.00 | 1.42 | 0.00 | 95 | 1013.6 |
| 20260904071458 | 25 | 320 | 0.0 | 0.0 | 0.00 | 1.42 | 0.00 | 95 | 1013.6 |
| 20260904070952 | 25 | 320 | 0.0 | 0.0 | 0.00 | 1.42 | 0.00 | 95 | 1013.7 |
| 20260904070446 | 25 | 320 | 0.0 | 0.0 | 0.00 | 1.42 | 0.00 | 95 | 1013.7 |
| 20260904065940 | 25 | 320 | 0.0 | 0.0 | 0.00 | 1.42 | 0.00 | 95 | 1013.8 |
| 20260904065710 | 25 | 320 | 0.0 | 0.0 | 0.00 | 1.42 | 0.00 | 95 | 1013.8 |
| 20260904065434 | 25 | 320 | 0.0 | 0.0 | 0.00 | 1.42 | 0.00 | 95 | 1013.8 |
| 20260904064929 | 25 | 320 | 0.0 | 0.0 | 0.00 | 1.42 | 0.00 | 95 | 1013.8 |
| 20260904064422 | 25 | 320 | 0.0 | 0.0 | 0.00 | 1.42 | 0.00 | 95 | 1013.8 |
| 20260904063916 | 25 | 320 | 0.0 | 0.0 | 0.00 | 1.42 | 0.00 | 94 | 1013.8 |
| 20260904063410 | 25 | 320 | 0.0 | 0.0 | 0.00 | 1.42 | 0.00 | 95 | 1013.9 |
| 20260904062904 | 25 | 320 | 0.0 | 0.0 | 0.00 | 1.42 | 0.00 | 95 | 1013.9 |
| 20260904062358 | 25 | 320 | 0.0 | 0.0 | 0.00 | 1.42 | 0.00 | 95 | 1014.0 |
| 20260904062228 | 25 | 320 | 0.0 | 0.0 | 0.00 | 1.42 | 0.00 | 95 | 1014.0 |
| 20260904062129 | 25 | 320 | 0.0 | 0.0 | 0.00 | 1.42 | 0.00 | 95 | 1014.0 |
| 20260904061346 | 25 | 320 | 0.0 | 0.0 | 0.00 | 1.42 | 0.00 | 95 | 1014.1 |
| 20260904061113 | 25 | 320 | 0.0 | 0.0 | 0.00 | 1.42 | 0.00 | 95 | 1014.2 |
| 20260904060945 | 25 | 320 | 0.0 | 0.0 | 0.00 | 1.42 | 0.00 | 95 | 1014.2 |
| 20260904060606 | 25 | 320 | 0.0 | 0.0 | 0.00 | 1.42 | 0.00 | 95 | 1014.2 |
| 20260904060439 | 25 | 320 | 0.0 | 0.0 | 0.00 | 1.42 | 0.00 | 95 | 1014.2 |
| 20260904055828 | 25 | 320 | 0.0 | 0.0 | 0.00 | 1.42 | 0.00 | 95 | 1014.2 |
| 20260904055553 | 25 | 320 | 0.0 | 0.0 | 0.00 | 1.42 | 0.00 | 95 | 1014.2 |
| 20260904055426 | 25 | 320 | 0.0 | 0.0 | 0.00 | 1.42 | 0.00 | 95 | 1014.2 |
| 20260904054816 | 25 | 320 | 0.0 | 0.0 | 0.00 | 1.42 | 0.00 | 95 | 1014.1 |
| 20260904054312 | 25 | 320 | 0.0 | 0.0 | 0.00 | 1.42 | 0.00 | 95 | 1014.1 |
| 20260904053812 | 25 | 320 | 0.0 | 0.0 | 0.00 | 1.42 | 0.00 | 95 | 1014.2 |
| 20260904053314 | 25 | 320 | 0.0 | 0.0 | 0.00 | 1.42 | 0.00 | 95 | 1014.3 |
| 20260904052814 | 25 | 320 | 0.0 | 0.0 | 0.00 | 1.42 | 0.00 | 95 | 1014.2 |
| 20260904052310 | 25 | 320 | 0.0 | 0.0 | 0.00 | 1.42 | 0.00 | 94 | 1014.4 |
| 20260904051809 | 25 | 320 | 0.0 | 0.0 | 0.00 | 1.42 | 0.00 | 95 | 1014.4 |
| 20260904051537 | 25 | 320 | 0.0 | 0.0 | 0.00 | 1.42 | 0.00 | 95 | 1014.3 |
| 20260904051410 | 25 | 320 | 0.0 | 0.0 | 0.00 | 1.42 | 0.00 | 95 | 1014.3 |
| 20260904050806 | 25 | 320 | 0.0 | 0.0 | 0.00 | 1.42 | 0.00 | 94 | 1014.4 |
| 20260904050306 | 25 | 320 | 0.0 | 0.0 | 0.00 | 1.42 | 0.00 | 94 | 1014.4 |
| 20260904045804 | 25 | 320 | 0.0 | 0.0 | 0.00 | 1.42 | 0.00 | 95 | 1014.3 |
| 20260904045306 | 25 | 320 | 0.0 | 0.0 | 0.00 | 1.42 | 0.00 | 94 | 1014.3 |
| 20260904044801 | 25 | 320 | 0.0 | 0.0 | 0.00 | 1.42 | 0.00 | 94 | 1014.3 |
| 20260904044259 | 25 | 320 | 0.0 | 0.0 | 0.00 | 1.42 | 0.00 | 95 | 1014.5 |
| 20260904043758 | 25 | 320 | 0.0 | 0.0 | 0.00 | 1.42 | 0.00 | 94 | 1014.5 |
| 20260904043257 | 25 | 320 | 0.0 | 0.0 | 0.00 | 1.42 | 0.00 | 94 | 1014.7 |
| 20260904043029 | 25 | 320 | 0.0 | 0.0 | 0.00 | 1.45 | 0.00 | 94 | 1014.8 |
| 20260904042901 | 25 | 320 | 0.0 | 0.0 | 0.00 | 1.45 | 0.00 | 94 | 1014.8 |
| 20260904042254 | 25 | 320 | 0.0 | 0.0 | 0.00 | 1.45 | 0.00 | 94 | 1014.7 |
| 20260904042024 | 25 | 320 | 0.0 | 0.0 | 0.00 | 1.45 | 0.00 | 94 | 1014.8 |
| 20260904041857 | 25 | 320 | 0.0 | 0.0 | 0.00 | 1.45 | 0.00 | 94 | 1014.8 |
| 20260904041250 | 25 | 320 | 0.0 | 0.0 | 0.00 | 1.45 | 0.00 | 94 | 1014.8 |
| 20260904040749 | 25 | 320 | 0.0 | 0.0 | 0.00 | 1.45 | 0.00 | 94 | 1014.7 |
| 20260904040247 | 25 | 320 | 0.0 | 0.0 | 0.00 | 1.50 | 0.00 | 94 | 1014.7 |
| 20260904035746 | 25 | 320 | 0.0 | 0.0 | 0.00 | 1.57 | 1.52 | 94 | 1014.6 |
| 20260904035246 | 25 | 320 | 0.0 | 0.0 | 0.00 | 1.65 | 1.52 | 94 | 1014.7 |
| 20260904034742 | 25 | 320 | 0.0 | 0.0 | 0.00 | 1.75 | 1.52 | 94 | 1014.7 |
| 20260904034242 | 25 | 320 | 0.0 | 0.0 | 0.00 | 1.75 | 1.52 | 94 | 1014.8 |
| 20260904034011 | 25 | 320 | 0.0 | 0.0 | 0.00 | 1.75 | 1.52 | 94 | 1014.7 |
| 20260904033843 | 25 | 320 | 0.0 | 0.0 | 0.00 | 1.75 | 1.52 | 94 | 1014.7 |
| 20260904033237 | 25 | 320 | 0.0 | 0.0 | 0.00 | 1.75 | 1.52 | 94 | 1014.6 |
| 20260904032734 | 25 | 320 | 0.0 | 0.0 | 0.00 | 1.75 | 1.52 | 94 | 1014.8 |
| 20260904032233 | 25 | 320 | 0.0 | 0.0 | 0.00 | 1.75 | 1.52 | 94 | 1014.9 |
| 20260904031730 | 25 | 320 | 0.0 | 0.0 | 0.00 | 1.75 | 1.52 | 94 | 1014.9 |
| 20260904031503 | 25 | 320 | 0.0 | 0.0 | 0.00 | 1.75 | 1.52 | 94 | 1015.0 |
| 20260904031336 | 25 | 320 | 0.0 | 0.0 | 0.00 | 1.75 | 1.52 | 94 | 1015.0 |
| 20260904030730 | 25 | 320 | 0.0 | 0.0 | 0.00 | 1.75 | 1.52 | 94 | 1014.9 |
| 20260904030229 | 25 | 320 | 0.0 | 1.6 | 0.00 | 1.75 | 1.52 | 94 | 1014.9 |
| 20260904025727 | 25 | 320 | 0.0 | 1.6 | 0.00 | 1.75 | 1.52 | 94 | 1015.0 |
| 20260904025225 | 25 | 320 | 0.0 | 1.6 | 0.00 | 1.75 | 1.52 | 94 | 1015.0 |
| 20260904024724 | 25 | 320 | 0.0 | 3.2 | 0.00 | 1.75 | 1.52 | 94 | 1015.0 |
| 20260904024221 | 25 | 320 | 0.0 | 3.2 | 0.00 | 1.75 | 1.52 | 94 | 1015.0 |
| 20260904023719 | 25 | 320 | 0.0 | 3.2 | 0.00 | 1.75 | 1.52 | 94 | 1015.0 |
| 20260904023217 | 25 | 320 | 0.0 | 1.6 | 0.00 | 1.75 | 1.52 | 94 | 1015.0 |
| 20260904022717 | 25 | 320 | 0.0 | 0.0 | 0.00 | 1.75 | 1.52 | 94 | 1015.0 |
| 20260904022216 | 25 | 320 | 0.0 | 0.0 | 0.00 | 1.75 | 1.52 | 94 | 1015.0 |
| 20260904021948 | 25 | 320 | 0.0 | 1.6 | 0.00 | 1.75 | 1.52 | 94 | 1014.9 |
| 20260904021822 | 25 | 320 | 0.0 | 1.6 | 0.00 | 1.75 | 1.52 | 94 | 1014.9 |
| 20260904021443 | 25 | 320 | 0.0 | 1.6 | 0.00 | 1.75 | 1.52 | 94 | 1015.0 |
| 20260904021317 | 25 | 320 | 0.0 | 1.6 | 0.00 | 1.75 | 1.52 | 94 | 1015.0 |
| 20260904020937 | 25 | 320 | 0.0 | 1.6 | 0.00 | 1.75 | 1.52 | 94 | 1015.0 |
| 20260904020810 | 25 | 320 | 0.0 | 1.6 | 0.00 | 1.75 | 1.52 | 94 | 1015.0 |
| 20260904020200 | 25 | 320 | 0.0 | 0.0 | 0.00 | 1.75 | 1.52 | 94 | 1014.9 |
| 20260904015926 | 25 | 320 | 0.0 | 0.0 | 0.00 | 1.75 | 1.52 | 94 | 1014.9 |
| 20260904015758 | 25 | 320 | 0.0 | 0.0 | 0.00 | 1.75 | 1.52 | 94 | 1014.9 |
| 20260904015148 | 25 | 320 | 0.0 | 0.0 | 0.00 | 1.75 | 1.52 | 94 | 1014.8 |
| 20260904014642 | 25 | 320 | 0.0 | 0.0 | 0.00 | 1.75 | 1.52 | 94 | 1014.8 |
| 20260904014136 | 25 | 320 | 0.0 | 0.0 | 0.00 | 1.75 | 1.52 | 94 | 1014.9 |
| 20260904013630 | 25 | 320 | 0.0 | 0.0 | 0.00 | 1.75 | 1.52 | 94 | 1014.8 |
| 20260904013354 | 25 | 320 | 0.0 | 0.0 | 0.00 | 1.75 | 1.52 | 94 | 1014.8 |
| 20260904013228 | 25 | 320 | 0.0 | 0.0 | 0.00 | 1.75 | 1.52 | 94 | 1014.8 |
| 20260904012619 | 25 | 320 | 0.0 | 0.0 | 0.00 | 1.75 | 1.52 | 94 | 1014.8 |
| 20260904012111 | 25 | 320 | 0.0 | 0.0 | 0.00 | 1.75 | 1.52 | 94 | 1014.7 |
| 20260904011611 | 25 | 320 | 0.0 | 0.0 | 0.00 | 1.75 | 1.52 | 93 | 1014.5 |
| 20260904011327 | 25 | 320 | 0.0 | 0.0 | 0.00 | 1.75 | 1.52 | 93 | 1014.6 |
| 20260904011201 | 25 | 320 | 0.0 | 0.0 | 0.00 | 1.75 | 1.52 | 93 | 1014.6 |
| 20260904010551 | 25 | 320 | 0.0 | 0.0 | 0.00 | 1.75 | 1.52 | 93 | 1014.4 |
| 20260904010316 | 25 | 320 | 0.0 | 0.0 | 0.00 | 1.75 | 1.52 | 93 | 1014.5 |
| 20260904010148 | 25 | 320 | 0.0 | 0.0 | 0.00 | 1.75 | 1.52 | 93 | 1014.5 |
| 20260904005538 | 25 | 320 | 0.0 | 1.6 | 0.00 | 1.75 | 1.52 | 93 | 1014.3 |
| 20260904005032 | 25 | 320 | 0.0 | 1.6 | 0.00 | 1.75 | 1.52 | 93 | 1014.3 |
| 20260904004526 | 25 | 320 | 0.0 | 1.6 | 0.00 | 1.75 | 1.52 | 93 | 1014.3 |
| 20260904004020 | 25 | 320 | 0.0 | 1.6 | 0.00 | 1.75 | 1.52 | 93 | 1014.2 |
| 20260904003515 | 25 | 320 | 0.0 | 1.6 | 0.00 | 1.75 | 1.52 | 93 | 1014.4 |
| 20260904003008 | 25 | 320 | 0.0 | 0.0 | 0.00 | 1.75 | 1.52 | 93 | 1014.0 |
| 20260904002502 | 25 | 320 | 0.0 | 1.6 | 0.00 | 1.75 | 1.52 | 93 | 1014.0 |
| 20260904001957 | 25 | 320 | 0.0 | 3.2 | 0.00 | 1.75 | 1.52 | 93 | 1014.0 |
| 20260904001450 | 25 | 320 | 0.0 | 3.2 | 0.00 | 1.75 | 1.52 | 93 | 1014.0 |
| 20260904000944 | 25 | 320 | 0.0 | 3.2 | 0.00 | 1.75 | 1.52 | 93 | 1014.2 |
| 20260904000440 | 25 | 320 | 0.0 | 1.6 | 0.00 | 1.75 | 1.52 | 93 | 1014.1 |
| 20260904000204 | 25 | 320 | 0.0 | 1.6 | 0.00 | 1.75 | 1.52 | 93 | 1014.0 |
| 20260904000036 | 25 | 320 | 0.0 | 1.6 | 0.00 | 1.75 | 1.52 | 93 | 1014.0 |
| 20260903235426 | 25 | 320 | 0.0 | 0.0 | 0.00 | 1.75 | 1.52 | 93 | 1013.8 |
| 20260903234920 | 25 | 320 | 0.0 | 1.6 | 0.00 | 1.75 | 1.52 | 93 | 1013.9 |
| 20260903234414 | 25 | 320 | 0.0 | 1.6 | 0.00 | 1.75 | 1.52 | 92 | 1013.9 |
| 20260903233915 | 25 | 320 | 1.6 | 3.2 | 0.00 | 1.75 | 1.52 | 92 | 1013.9 |
| 20260903233128 | 25 | 320 | 0.0 | 3.2 | 0.00 | 1.75 | 1.52 | 92 | 1013.9 |
| 20260903233000 | 25 | 320 | 0.0 | 3.2 | 0.00 | 1.75 | 1.52 | 92 | 1013.9 |
| 20260903232350 | 25 | 320 | 0.0 | 0.0 | 0.00 | 1.75 | 1.52 | 92 | 1013.8 |
| 20260903231845 | 25 | 320 | 0.0 | 0.0 | 0.00 | 1.75 | 1.52 | 92 | 1013.7 |
| 20260903231609 | 25 | 320 | 0.0 | 0.0 | 0.00 | 1.75 | 1.52 | 91 | 1013.7 |
| 20260903231443 | 25 | 320 | 0.0 | 0.0 | 0.00 | 1.75 | 1.52 | 91 | 1013.7 |
| 20260903231107 | 25 | 320 | 0.0 | 0.0 | 0.00 | 1.75 | 1.52 | 91 | 1013.8 |
| 20260903230832 | 25 | 320 | 0.0 | 0.0 | 0.00 | 1.75 | 1.52 | 91 | 1013.8 |
| 20260903230332 | 25 | 320 | 0.0 | 0.0 | 0.00 | 1.75 | 1.52 | 91 | 1013.8 |
| 20260903225314 | 25 | 320 | 0.0 | 1.6 | 0.00 | 1.75 | 1.52 | 91 | 1013.8 |
| 20260903224814 | 25 | 320 | 0.0 | 1.6 | 0.00 | 1.75 | 1.52 | 91 | 1014.0 |
| 20260903224314 | 25 | 320 | 0.0 | 3.2 | 0.00 | 1.75 | 1.52 | 90 | 1013.9 |
| 20260903223814 | 25 | 320 | 0.0 | 3.2 | 0.00 | 1.75 | 1.52 | 90 | 1013.9 |
| 20260903223315 | 25 | 320 | 1.6 | 4.8 | 0.00 | 1.75 | 1.52 | 90 | 1013.9 |
| 20260903222814 | 25 | 320 | 3.2 | 6.4 | 0.00 | 1.75 | 1.52 | 90 | 1014.1 |
| 20260903222314 | 26 | 320 | 3.2 | 6.4 | 0.00 | 1.75 | 1.52 | 89 | 1014.0 |
| 20260903221814 | 26 | 321 | 3.2 | 8.0 | 0.00 | 1.75 | 1.52 | 90 | 1014.1 |
| 20260903221545 | 26 | 326 | 1.6 | 8.0 | 0.00 | 1.75 | 1.52 | 90 | 1013.9 |
| 20260903221419 | 26 | 326 | 1.6 | 8.0 | 0.00 | 1.75 | 1.52 | 90 | 1013.9 |
| 20260903221045 | 26 | 52 | 0.0 | 4.8 | 0.00 | 1.80 | 1.52 | 91 | 1013.7 |
| 20260903220919 | 26 | 52 | 0.0 | 4.8 | 0.00 | 1.80 | 1.52 | 91 | 1013.7 |
| 20260903220315 | 26 | 53 | 0.0 | 1.6 | 0.00 | 1.98 | 1.52 | 92 | 1013.7 |
| 20260903215813 | 26 | 53 | 0.0 | 1.6 | 0.00 | 2.06 | 1.52 | 92 | 1013.5 |
| 20260903215315 | 26 | 53 | 0.0 | 1.6 | 0.00 | 2.21 | 1.52 | 93 | 1013.4 |
| 20260903214814 | 26 | 54 | 0.0 | 1.6 | 0.00 | 2.26 | 1.52 | 93 | 1013.2 |
| 20260903214551 | 26 | 53 | 0.0 | 3.2 | 0.00 | 2.36 | 1.52 | 93 | 1013.1 |
| 20260903214045 | 25 | 53 | 0.0 | 3.2 | 0.00 | 2.41 | 1.52 | 93 | 1012.9 |
| 20260903213918 | 25 | 53 | 0.0 | 3.2 | 0.00 | 2.41 | 1.52 | 93 | 1012.9 |
| 20260903213314 | 25 | 53 | 0.0 | 3.2 | 0.00 | 2.44 | 1.52 | 93 | 1012.8 |
| 20260903213051 | 25 | 53 | 0.0 | 3.2 | 0.00 | 2.46 | 1.52 | 93 | 1012.7 |
| 20260903212316 | 25 | 54 | 1.6 | 4.8 | 0.00 | 2.46 | 1.52 | 93 | 1012.6 |
| 20260903211814 | 25 | 53 | 1.6 | 6.4 | 0.00 | 2.46 | 1.52 | 92 | 1012.7 |
| 20260903211314 | 25 | 52 | 3.2 | 6.4 | 0.64 | 2.46 | 1.52 | 92 | 1012.8 |
| 20260903210815 | 25 | 45 | 3.2 | 6.4 | 1.35 | 2.46 | 1.52 | 91 | 1012.9 |
| 20260903210314 | 24 | 47 | 3.2 | 6.4 | 1.40 | 2.46 | 1.52 | 91 | 1013.0 |
| 20260903210046 | 24 | 48 | 4.8 | 12.9 | 1.40 | 2.46 | 1.52 | 90 | 1013.3 |
| 20260903205920 | 24 | 48 | 4.8 | 12.9 | 1.40 | 2.46 | 1.52 | 90 | 1013.3 |
| 20260903205314 | 24 | 47 | 6.4 | 16.1 | 1.40 | 2.46 | 1.52 | 90 | 1013.6 |
| 20260903205005 | 25 | 81 | 6.4 | 12.9 | 1.40 | 2.46 | 1.52 | 89 | 1013.9 |
| 20260903204959 | 25 | 84 | 8.0 | 12.9 | 1.40 | 2.46 | 1.52 | 89 | 1013.5 |
| 20260903204930 | 24 | 52 | 8.0 | 19.3 | 1.40 | 2.46 | 1.52 | 89 | 1013.6 |
| 20260903204825 | 25 | 54 | 8.0 | 19.3 | 1.40 | 2.46 | 1.52 | 87 | 1013.7 |
| 20260903204716 | 25 | 45 | 6.4 | 16.1 | 1.40 | 2.46 | 1.52 | 88 | 1013.9 |
| 20260903204613 | 25 | 81 | 6.4 | 12.9 | 1.40 | 2.46 | 1.52 | 89 | 1013.9 |
| 20260903204405 | 25 | 84 | 8.0 | 12.9 | 1.40 | 2.46 | 1.52 | 89 | 1013.5 |
| 20260903202812 | 25 | 84 | 8.0 | 12.9 | 1.40 | 2.46 | 1.52 | 89 | 1013.5 |
| 20260903202542 | 25 | 5 | 9.7 | 22.5 | 1.40 | 2.46 | 1.52 | 88 | 1013.4 |
| 20260903202416 | 25 | 5 | 9.7 | 22.5 | 1.40 | 2.46 | 1.52 | 88 | 1013.4 |
| 20260903201812 | 26 | 301 | 9.7 | 22.5 | 1.40 | 2.46 | 1.52 | 87 | 1013.3 |
| 20260903201313 | 27 | 320 | 8.0 | 19.3 | 0.76 | 1.83 | 0.99 | 85 | 1014.0 |
| 20260903200812 | 27 | 315 | 6.4 | 19.3 | 0.00 | 1.07 | 0.13 | 82 | 1013.7 |
| 20260903200312 | 28 | 343 | 6.4 | 17.7 | 0.00 | 1.07 | 0.13 | 77 | 1013.3 |
| 20260903195813 | 29 | 308 | 4.8 | 17.7 | 0.00 | 1.07 | 0.13 | 75 | 1013.2 |
| 20260903195311 | 30 | 309 | 3.2 | 8.0 | 0.00 | 1.07 | 0.13 | 78 | 1013.2 |
| 20260903195043 | 30 | 58 | 3.2 | 9.7 | 0.00 | 1.07 | 0.13 | 79 | 1012.9 |
| 20260903194916 | 30 | 58 | 3.2 | 9.7 | 0.00 | 1.07 | 0.13 | 79 | 1012.9 |
| 20260903194312 | 31 | 81 | 4.8 | 12.9 | 0.00 | 1.07 | 0.13 | 78 | 1012.7 |
| 20260903193812 | 31 | 114 | 4.8 | 12.9 | 0.00 | 1.07 | 0.13 | 78 | 1012.4 |
| 20260903193313 | 31 | 29 | 6.4 | 14.5 | 0.00 | 1.07 | 0.13 | 77 | 1012.8 |
| 20260903192811 | 31 | 26 | 6.4 | 14.5 | 0.00 | 1.07 | 0.13 | 76 | 1012.9 |
| 20260903192542 | 31 | 20 | 4.8 | 12.9 | 0.00 | 1.07 | 0.13 | 75 | 1012.9 |
| 20260903192416 | 31 | 20 | 4.8 | 12.9 | 0.00 | 1.07 | 0.13 | 75 | 1012.9 |
| 20260903191812 | 32 | 41 | 4.8 | 12.9 | 0.00 | 1.07 | 0.13 | 74 | 1012.9 |
| 20260903191310 | 32 | 58 | 4.8 | 11.3 | 0.00 | 1.07 | 0.13 | 73 | 1013.0 |
| 20260903190914 | 32 | 58 | 4.8 | 12.9 | 0.00 | 1.07 | 0.13 | 74 | 1013.0 |
| 20260903190310 | 32 | 81 | 4.8 | 12.9 | 0.00 | 1.07 | 0.13 | 73 | 1013.0 |
| 20260903185809 | 32 | 39 | 4.8 | 12.9 | 0.00 | 1.07 | 0.13 | 73 | 1012.9 |
| 20260903185414 | 32 | 31 | 4.8 | 12.9 | 0.00 | 1.07 | 0.13 | 73 | 1013.1 |
| 20260903184804 | 33 | 21 | 3.2 | 9.7 | 0.00 | 1.07 | 0.13 | 70 | 1013.3 |
| 20260903184258 | 33 | 49 | 3.2 | 6.4 | 0.00 | 1.07 | 0.13 | 70 | 1013.3 |
| 20260903184128 | 33 | 65 | 3.2 | 6.4 | 0.00 | 1.07 | 0.13 | 70 | 1013.3 |
| 20260903184032 | 33 | 65 | 3.2 | 6.4 | 0.00 | 1.07 | 0.13 | 70 | 1013.3 |
| 20260903183246 | 33 | 65 | 3.2 | 8.0 | 0.00 | 1.07 | 0.13 | 69 | 1013.3 |
| 20260903182739 | 34 | 160 | 3.2 | 8.0 | 0.00 | 1.07 | 0.13 | 66 | 1013.3 |
| 20260903182609 | 34 | 160 | 3.2 | 9.7 | 0.00 | 1.07 | 0.13 | 65 | 1013.0 |
| 20260903182513 | 34 | 160 | 3.2 | 9.7 | 0.00 | 1.07 | 0.13 | 65 | 1013.0 |
| 20260903181728 | 35 | 68 | 4.8 | 14.5 | 0.00 | 1.07 | 0.13 | 65 | 1013.1 |
| 20260903181222 | 35 | 39 | 4.8 | 14.5 | 0.00 | 1.07 | 0.13 | 65 | 1013.1 |
| 20260903180715 | 35 | 170 | 4.8 | 11.3 | 0.00 | 1.07 | 0.13 | 66 | 1013.3 |
| 20260903180209 | 35 | 53 | 3.2 | 8.0 | 0.00 | 1.07 | 0.13 | 63 | 1013.4 |
| 20260903175704 | 35 | 57 | 3.2 | 8.0 | 0.00 | 1.07 | 0.13 | 63 | 1013.5 |
| 20260903175158 | 35 | 55 | 3.2 | 9.7 | 0.00 | 1.07 | 0.13 | 65 | 1013.6 |
| 20260903174923 | 35 | 225 | 3.2 | 9.7 | 0.00 | 1.07 | 0.13 | 60 | 1013.6 |
| 20260903174755 | 35 | 225 | 3.2 | 9.7 | 0.00 | 1.07 | 0.13 | 60 | 1013.6 |
| 20260903174146 | 35 | 170 | 3.2 | 9.7 | 0.00 | 1.07 | 0.13 | 63 | 1013.7 |
| 20260903173640 | 34 | 184 | 3.2 | 9.7 | 0.00 | 1.07 | 0.13 | 65 | 1013.8 |
| 20260903173134 | 34 | 226 | 1.6 | 9.7 | 0.00 | 1.07 | 0.13 | 64 | 1013.8 |
| 20260903172900 | 33 | 216 | 1.6 | 4.8 | 0.00 | 1.07 | 0.13 | 65 | 1013.8 |
| 20260903172733 | 33 | 216 | 1.6 | 4.8 | 0.00 | 1.07 | 0.13 | 65 | 1013.8 |